Time;durP1;ratioP1;P1;durP2;ratioP2;P2;SDS_P1;SDS_P2;PMS_P1;PMS_P2;Temp;Humidity;BMP_temperature;BMP_pressure;BME280_temperature;BME280_humidity;BME280_pressure;Samples;Min_cycle;Max_cycle;Signal;HPM_P1;HPM_P2
2022/07/07 00:01:56;;;;;;;8.30;5.00;;;;;;;18.27;58.34;100158.03;5007918;28;20054;-70
2022/07/07 00:04:22;;;;;;;11.55;5.38;;;;;;;18.24;58.46;100151.09;5008321;28;20042;-70
2022/07/07 00:07:07;;;;;;;9.02;5.38;;;;;;;18.23;58.55;100149.38;4995588;28;20045;-70
2022/07/07 00:09:34;;;;;;;9.57;5.10;;;;;;;18.18;58.91;100146.22;4994553;28;20050;-70
2022/07/07 00:12:00;;;;;;;6.70;4.65;;;;;;;18.16;59.02;100129.50;5008029;28;20042;-69
2022/07/07 00:14:29;;;;;;;9.10;5.40;;;;;;;18.18;59.16;100143.56;5007091;28;20057;-71
2022/07/07 00:16:56;;;;;;;9.88;5.32;;;;;;;18.18;59.17;100142.69;5006900;28;20041;-70
2022/07/07 00:19:23;;;;;;;11.82;4.45;;;;;;;18.20;59.01;100146.97;5008210;28;20642;-70
2022/07/07 00:21:50;;;;;;;12.70;5.38;;;;;;;18.19;59.20;100139.09;5008255;28;20046;-70
2022/07/07 00:24:16;;;;;;;12.20;5.88;;;;;;;18.18;59.30;100140.03;5008103;28;20052;-70
2022/07/07 00:26:43;;;;;;;7.47;5.43;;;;;;;18.17;59.17;100131.19;5008370;28;20129;-70
2022/07/07 00:29:09;;;;;;;9.65;5.15;;;;;;;18.15;59.32;100133.13;5007384;28;20050;-70
2022/07/07 00:31:38;;;;;;;8.77;4.85;;;;;;;18.16;59.24;100141.97;5008286;28;20053;-70
2022/07/07 00:34:04;;;;;;;6.68;4.93;;;;;;;18.14;59.47;100136.75;5008218;28;20554;-68
2022/07/07 00:36:31;;;;;;;8.65;5.80;;;;;;;18.12;59.66;100133.34;5007109;28;20054;-69
2022/07/07 00:38:58;;;;;;;7.93;5.55;;;;;;;18.12;59.54;100132.50;5007619;28;20053;-68
2022/07/07 00:41:24;;;;;;;10.32;4.90;;;;;;;18.10;60.21;100129.09;4987943;28;20525;-69
2022/07/07 00:43:51;;;;;;;13.27;4.97;;;;;;;18.10;60.10;100127.28;4988508;28;20045;-69
2022/07/07 00:46:19;;;;;;;10.13;5.00;;;;;;;18.09;59.96;100124.72;4988037;28;20060;-68
2022/07/07 00:48:47;;;;;;;10.98;4.95;;;;;;;18.10;60.25;100118.44;4988368;28;20046;-70
2022/07/07 00:51:14;;;;;;;10.73;5.40;;;;;;;18.08;60.12;100118.53;4988677;28;20078;-67
2022/07/07 00:53:40;;;;;;;7.32;4.93;;;;;;;18.06;60.19;100106.28;4988208;28;20121;-70
2022/07/07 00:56:08;;;;;;;8.80;4.90;;;;;;;18.08;60.21;100107.84;4987992;28;20043;-68
2022/07/07 00:58:35;;;;;;;6.90;4.50;;;;;;;18.08;60.43;100109.69;4987857;28;20142;-69
2022/07/07 01:01:02;;;;;;;10.73;4.97;;;;;;;18.07;60.41;100106.16;4973382;28;20097;-68
2022/07/07 01:03:29;;;;;;;7.97;4.82;;;;;;;18.10;60.55;100086.41;4988074;28;20137;-69
2022/07/07 01:05:59;;;;;;;9.93;5.10;;;;;;;18.06;60.79;100085.78;4990511;28;20038;-68
2022/07/07 01:08:26;;;;;;;12.38;5.25;;;;;;;18.06;60.78;100080.44;4995787;28;20049;-72
2022/07/07 01:10:53;;;;;;;9.73;4.85;;;;;;;18.06;60.62;100079.59;4997992;28;20172;-69
2022/07/07 01:13:19;;;;;;;8.50;5.38;;;;;;;18.01;60.96;100079.94;5007751;28;20160;-70
2022/07/07 01:15:46;;;;;;;6.88;4.93;;;;;;;18.01;61.02;100066.59;5008583;28;20509;-69
2022/07/07 01:18:13;;;;;;;12.48;5.68;;;;;;;17.99;61.33;100065.84;5011540;28;20057;-70
2022/07/07 01:20:45;;;;;;;15.90;4.70;;;;;;;18.00;61.27;100057.75;5027672;28;20048;-69
2022/07/07 01:23:14;;;;;;;11.40;5.28;;;;;;;17.99;61.15;100056.06;5026994;28;20049;-69
2022/07/07 01:25:40;;;;;;;9.48;5.65;;;;;;;18.00;61.40;100063.09;5026895;28;20045;-69
2022/07/07 01:28:07;;;;;;;10.25;5.43;;;;;;;18.01;61.37;100056.78;5026867;28;20528;-69
2022/07/07 01:30:33;;;;;;;10.05;5.55;;;;;;;18.00;61.46;100054.25;5027036;28;20046;-69
2022/07/07 01:33:00;;;;;;;8.75;4.55;;;;;;;17.96;61.82;100040.25;5028357;28;20413;-70
2022/07/07 01:35:27;;;;;;;11.48;4.55;;;;;;;18.00;61.52;100040.91;5029142;28;20050;-69
2022/07/07 01:37:53;;;;;;;7.95;4.18;;;;;;;18.01;61.58;100046.09;5028722;28;20053;-70
2022/07/07 01:40:21;;;;;;;9.73;4.35;;;;;;;18.02;61.64;100039.81;5029150;28;20060;-70
2022/07/07 01:42:48;;;;;;;11.65;5.25;;;;;;;18.02;61.74;100049.63;5028237;28;20066;-69
2022/07/07 01:45:14;;;;;;;10.25;6.05;;;;;;;18.02;61.84;100047.81;5028151;28;20132;-70
2022/07/07 01:47:41;;;;;;;6.43;3.90;;;;;;;18.06;61.83;100051.09;5027922;28;20049;-69
2022/07/07 01:50:08;;;;;;;9.77;4.55;;;;;;;18.07;61.82;100038.63;5027270;28;20048;-71
2022/07/07 01:52:36;;;;;;;9.10;3.83;;;;;;;18.07;61.82;100039.47;5010100;28;20774;-69
2022/07/07 01:55:03;;;;;;;8.02;4.13;;;;;;;18.09;62.10;100034.88;5006890;28;20050;-70
2022/07/07 01:57:31;;;;;;;5.72;3.95;;;;;;;18.09;62.15;100032.19;5006243;28;20054;-69
2022/07/07 01:59:58;;;;;;;7.53;4.13;;;;;;;18.07;62.34;100020.78;5007044;28;20054;-69
2022/07/07 02:02:25;;;;;;;6.47;3.85;;;;;;;18.08;62.25;100024.31;5001330;28;20053;-69
2022/07/07 02:04:51;;;;;;;5.90;3.70;;;;;;;18.09;62.48;100026.00;5006709;28;20520;-69
2022/07/07 02:07:18;;;;;;;6.75;3.72;;;;;;;18.06;62.70;100032.41;5006195;28;20050;-69
2022/07/07 02:09:44;;;;;;;9.77;4.68;;;;;;;18.06;62.94;100027.06;5007057;28;20046;-70
2022/07/07 02:12:11;;;;;;;6.93;3.70;;;;;;;18.06;62.81;100019.06;5006455;28;20574;-70
2022/07/07 02:14:39;;;;;;;6.55;4.13;;;;;;;18.05;63.20;100022.72;5008485;28;20390;-69
2022/07/07 02:17:05;;;;;;;9.73;4.38;;;;;;;18.07;63.09;100017.28;5010041;28;20121;-69
2022/07/07 02:19:32;;;;;;;7.13;4.15;;;;;;;18.06;63.50;100020.91;5010207;28;20052;-69
2022/07/07 02:21:59;;;;;;;7.00;3.58;;;;;;;18.06;63.49;100012.88;5010168;28;20046;-69
2022/07/07 02:24:25;;;;;;;5.80;4.00;;;;;;;18.05;63.47;100012.06;5010349;28;20046;-69
2022/07/07 02:26:52;;;;;;;6.28;4.63;;;;;;;18.03;63.75;100016.66;5009717;28;20048;-69
2022/07/07 02:29:19;;;;;;;7.53;4.32;;;;;;;18.04;63.70;100013.03;5010259;28;20046;-69
2022/07/07 02:31:46;;;;;;;6.07;3.50;;;;;;;18.06;63.49;100013.72;5010067;28;20038;-68
2022/07/07 02:34:13;;;;;;;7.45;4.20;;;;;;;18.04;63.75;100007.69;5010229;28;20446;-69
2022/07/07 02:36:40;;;;;;;7.65;4.60;;;;;;;18.01;64.19;100011.41;5009338;28;20096;-68
2022/07/07 02:39:07;;;;;;;9.70;4.00;;;;;;;18.00;64.41;100012.41;5010898;28;20044;-69
2022/07/07 02:41:33;;;;;;;7.15;4.45;;;;;;;17.94;64.64;100010.22;5009616;28;20142;-70
2022/07/07 02:44:00;;;;;;;6.15;4.40;;;;;;;17.98;64.57;100003.66;5009484;28;20071;-70
2022/07/07 02:46:28;;;;;;;5.60;3.45;;;;;;;17.99;64.45;100005.38;5009229;28;20416;-69
2022/07/07 02:48:56;;;;;;;5.43;3.50;;;;;;;18.01;64.40;100007.91;5010009;28;20575;-69
2022/07/07 02:51:22;;;;;;;9.23;3.90;;;;;;;18.00;64.57;100006.22;5009717;28;20060;-69
2022/07/07 02:53:49;;;;;;;8.73;4.40;;;;;;;18.01;64.34;100014.09;5010165;28;20512;-69
2022/07/07 02:56:16;;;;;;;5.20;3.35;;;;;;;17.99;64.44;100005.38;5009837;28;20464;-70
2022/07/07 02:58:42;;;;;;;5.88;4.18;;;;;;;18.03;64.52;100009.47;5008783;28;20056;-71
2022/07/07 03:01:09;;;;;;;7.90;3.92;;;;;;;18.02;64.58;100006.94;5009273;28;20510;-69
2022/07/07 03:03:36;;;;;;;9.90;3.78;;;;;;;18.01;64.50;100003.41;5009562;28;20120;-69
2022/07/07 03:06:04;;;;;;;4.05;3.45;;;;;;;18.01;65.13;99997.22;5009576;28;20464;-69
2022/07/07 03:08:31;;;;;;;6.55;3.53;;;;;;;17.99;65.38;99993.81;5009207;28;20053;-69
2022/07/07 03:10:57;;;;;;;5.18;3.10;;;;;;;17.97;65.48;99998.47;5009384;28;20632;-68
2022/07/07 03:13:24;;;;;;;7.95;3.80;;;;;;;17.99;65.60;99994.69;5009397;28;20053;-69
2022/07/07 03:15:50;;;;;;;8.43;4.25;;;;;;;18.01;65.72;100010.56;5009603;28;20050;-70
2022/07/07 03:18:17;;;;;;;8.57;4.22;;;;;;;18.01;66.08;100002.56;5008965;28;20057;-70
2022/07/07 03:20:43;;;;;;;4.50;3.05;;;;;;;18.02;65.94;100001.63;5009186;28;20053;-69
2022/07/07 03:23:11;;;;;;;6.00;3.20;;;;;;;18.01;66.21;100000.75;5009110;28;20041;-69
2022/07/07 03:25:38;;;;;;;21.48;4.32;;;;;;;17.99;66.02;100000.03;5009619;28;20046;-69
2022/07/07 03:28:05;;;;;;;7.20;3.60;;;;;;;18.00;66.29;100003.56;5008273;28;20069;-70
2022/07/07 03:30:32;;;;;;;5.53;3.25;;;;;;;18.03;66.11;100011.31;5009199;28;20042;-70
2022/07/07 03:32:58;;;;;;;5.50;2.70;;;;;;;18.05;66.24;100012.06;5009192;28;20470;-71
2022/07/07 03:35:25;;;;;;;7.43;2.70;;;;;;;18.06;66.01;100016.41;5009251;28;20050;-70
2022/07/07 03:37:51;;;;;;;6.82;3.45;;;;;;;18.06;66.13;100004.88;5008329;28;20042;-70
2022/07/07 03:40:20;;;;;;;6.22;3.20;;;;;;;18.06;66.48;100015.56;5008909;28;20128;-71
2022/07/07 03:42:47;;;;;;;7.28;3.53;;;;;;;18.01;66.81;100013.25;5008910;28;20185;-71
2022/07/07 03:45:14;;;;;;;7.35;3.25;;;;;;;17.98;67.30;100009.00;5009016;28;20525;-71
2022/07/07 03:47:41;;;;;;;8.73;3.15;;;;;;;17.98;67.16;100006.31;5008260;28;20045;-70
2022/07/07 03:50:08;;;;;;;7.18;2.90;;;;;;;17.97;67.47;100003.78;5009371;28;20078;-71
2022/07/07 03:52:34;;;;;;;6.38;3.38;;;;;;;17.95;67.29;100003.06;5008979;28;20497;-69
2022/07/07 03:55:01;;;;;;;5.63;3.40;;;;;;;17.93;67.80;99996.97;5008433;28;20137;-69
2022/07/07 03:57:29;;;;;;;4.10;3.25;;;;;;;17.96;67.58;100002.06;5008415;28;20429;-70
2022/07/07 03:59:55;;;;;;;6.78;3.95;;;;;;;17.97;67.72;99998.47;5008730;28;20046;-70
2022/07/07 04:02:22;;;;;;;4.72;3.30;;;;;;;17.98;68.00;100000.16;5008364;28;20137;-70
2022/07/07 04:04:49;;;;;;;4.47;3.53;;;;;;;17.95;68.12;100003.06;5008399;28;20046;-70
2022/07/07 04:07:15;;;;;;;4.95;3.47;;;;;;;17.94;68.16;99999.53;5008071;28;20077;-71
2022/07/07 04:09:42;;;;;;;6.32;3.65;;;;;;;17.95;69.32;99990.56;5008327;28;20050;-70
2022/07/07 04:12:09;;;;;;;5.65;3.33;;;;;;;17.90;69.86;99989.22;5008354;28;20050;-71
2022/07/07 04:14:37;;;;;;;10.38;3.53;;;;;;;17.84;70.64;99982.50;5008331;28;20145;-70
2022/07/07 04:17:04;;;;;;;5.07;3.30;;;;;;;17.83;70.51;99983.50;5007796;28;20042;-70
2022/07/07 04:19:31;;;;;;;6.93;3.42;;;;;;;17.85;70.83;99978.06;5008393;28;20050;-70
2022/07/07 04:21:57;;;;;;;7.85;3.88;;;;;;;17.84;70.49;99981.66;5008194;28;20041;-71
2022/07/07 04:24:24;;;;;;;7.82;3.45;;;;;;;17.80;70.69;99981.06;5005528;28;20136;-69
2022/07/07 04:26:50;;;;;;;10.68;3.60;;;;;;;17.81;70.35;99980.94;5008871;28;20046;-70
2022/07/07 04:29:17;;;;;;;6.82;3.92;;;;;;;17.82;70.24;99979.16;5007823;28;20434;-71
2022/07/07 04:31:45;;;;;;;5.57;3.15;;;;;;;17.84;70.01;99979.84;5007769;28;20054;-71
2022/07/07 04:34:12;;;;;;;6.38;3.50;;;;;;;17.84;70.30;99979.00;5008050;28;20053;-70
2022/07/07 04:36:39;;;;;;;6.78;3.20;;;;;;;17.83;70.37;99977.31;5007317;28;20056;-70
2022/07/07 04:39:06;;;;;;;4.20;3.42;;;;;;;17.81;70.76;99975.59;5008076;28;20056;-69
2022/07/07 04:41:32;;;;;;;6.68;4.20;;;;;;;17.77;71.21;99973.25;5008050;28;20046;-71
2022/07/07 04:43:59;;;;;;;5.05;3.63;;;;;;;17.72;71.91;99962.09;5007581;28;20045;-70
2022/07/07 04:46:26;;;;;;;7.82;3.72;;;;;;;17.74;71.90;99961.00;5008503;28;20064;-70
2022/07/07 04:48:53;;;;;;;5.60;3.58;;;;;;;17.75;71.75;99960.06;5008338;28;20049;-70
2022/07/07 04:51:20;;;;;;;6.25;3.80;;;;;;;17.76;71.48;99966.22;5008674;28;20052;-70
2022/07/07 04:53:47;;;;;;;4.57;3.42;;;;;;;17.75;71.58;99961.88;5004338;28;20053;-70
2022/07/07 04:56:13;;;;;;;6.13;3.90;;;;;;;17.75;71.50;99953.88;5008584;28;20134;-71
2022/07/07 04:58:41;;;;;;;4.63;3.28;;;;;;;17.76;71.22;99956.41;5008178;28;20072;-70
2022/07/07 05:01:08;;;;;;;7.03;3.38;;;;;;;17.77;71.05;99960.78;5007452;28;20044;-69
2022/07/07 05:03:35;;;;;;;3.83;2.92;;;;;;;17.77;70.67;99949.25;5007527;28;20048;-69
2022/07/07 05:06:03;;;;;;;6.03;3.28;;;;;;;17.78;70.77;99941.16;5007572;28;20038;-70
2022/07/07 05:08:30;;;;;;;6.20;3.15;;;;;;;17.81;70.51;99956.09;5006778;28;20056;-69
2022/07/07 05:10:57;;;;;;;5.80;3.03;;;;;;;17.77;70.53;99954.56;5007479;28;20042;-68
2022/07/07 05:13:23;;;;;;;4.85;3.53;;;;;;;17.74;70.54;99961.00;5006308;28;20058;-68
2022/07/07 05:15:50;;;;;;;5.78;3.60;;;;;;;17.73;70.91;99961.97;5007216;28;20042;-69
2022/07/07 05:18:17;;;;;;;4.68;3.13;;;;;;;17.77;70.71;99967.91;5006548;28;20053;-69
2022/07/07 05:20:43;;;;;;;4.30;3.03;;;;;;;17.82;70.44;99965.81;5007117;28;20050;-69
2022/07/07 05:23:16;;;;;;;8.70;3.33;;;;;;;17.84;70.63;99961.19;5007909;28;20052;-70
2022/07/07 05:25:43;;;;;;;7.88;3.92;;;;;;;17.85;70.75;99962.91;5007735;28;20052;-70
2022/07/07 05:28:10;;;;;;;10.35;3.83;;;;;;;17.84;70.60;99958.50;5007050;28;20042;-70
2022/07/07 05:30:37;;;;;;;6.78;3.83;;;;;;;17.76;71.45;99959.06;5006337;28;20046;-70
2022/07/07 05:33:07;;;;;;;7.90;4.18;;;;;;;17.75;71.57;99960.06;5006772;28;20053;-70
2022/07/07 05:35:34;;;;;;;6.30;3.70;;;;;;;17.77;72.07;99963.47;5006934;28;20054;-71
2022/07/07 05:38:00;;;;;;;10.07;4.20;;;;;;;17.73;72.83;99967.31;5007382;28;20125;-71
2022/07/07 05:40:28;;;;;;;6.65;3.97;;;;;;;17.69;73.69;99963.16;5006792;28;20100;-71
2022/07/07 05:42:55;;;;;;;7.43;4.25;;;;;;;17.57;74.64;99978.31;5006995;28;20461;-71
2022/07/07 05:45:22;;;;;;;7.22;4.40;;;;;;;17.43;75.87;99980.31;5008393;28;20420;-68
2022/07/07 05:47:49;;;;;;;7.55;4.25;;;;;;;17.33;77.02;99978.31;5006633;28;20424;-71
2022/07/07 05:50:15;;;;;;;6.03;4.30;;;;;;;17.21;77.52;99981.88;5008941;28;20054;-72
2022/07/07 05:52:42;;;;;;;7.78;5.13;;;;;;;17.17;78.96;99988.41;5010732;28;20056;-72
2022/07/07 05:55:09;;;;;;;7.50;5.88;;;;;;;17.14;79.56;99992.13;5011201;28;20627;-70
2022/07/07 05:57:37;;;;;;;8.25;5.32;;;;;;;17.09;80.82;100004.09;5009468;28;20144;-72
2022/07/07 06:00:05;;;;;;;9.70;5.35;;;;;;;17.06;81.15;100007.00;5011046;28;20046;-69
2022/07/07 06:02:32;;;;;;;8.05;5.10;;;;;;;17.08;82.01;100023.69;5010115;28;20136;-71
2022/07/07 06:04:58;;;;;;;8.65;4.85;;;;;;;17.11;81.87;100018.16;5010499;28;20141;-69
2022/07/07 06:07:25;;;;;;;9.45;4.32;;;;;;;17.10;81.32;100019.09;5009682;28;20056;-69
2022/07/07 06:09:51;;;;;;;9.23;4.85;;;;;;;17.11;81.96;100011.03;5010270;28;20409;-69
2022/07/07 06:12:18;;;;;;;6.28;3.78;;;;;;;17.10;81.55;100019.09;5010671;28;20057;-69
2022/07/07 06:14:46;;;;;;;6.43;3.80;;;;;;;17.10;81.34;100035.09;5009798;28;20046;-72
2022/07/07 06:17:13;;;;;;;4.30;3.17;;;;;;;17.13;81.24;100034.88;5010200;28;20057;-70
2022/07/07 06:19:39;;;;;;;4.10;2.63;;;;;;;17.17;81.33;100039.00;5011715;28;20041;-70
2022/07/07 06:22:06;;;;;;;3.97;3.03;;;;;;;17.21;81.41;100043.16;5011323;28;20433;-70
2022/07/07 06:24:32;;;;;;;4.43;3.58;;;;;;;17.27;81.14;100044.53;5010441;28;20100;-69
2022/07/07 06:26:59;;;;;;;5.97;3.30;;;;;;;17.24;80.52;100039.44;5009821;28;20509;-69
2022/07/07 06:29:26;;;;;;;9.38;4.53;;;;;;;17.25;80.71;100057.09;5009942;28;20057;-72
2022/07/07 06:31:54;;;;;;;5.88;3.15;;;;;;;17.25;80.54;100044.63;5009948;28;20045;-70
2022/07/07 06:34:20;;;;;;;7.45;4.18;;;;;;;17.26;80.04;100046.34;5009807;28;20057;-72
2022/07/07 06:36:47;;;;;;;7.72;4.28;;;;;;;17.25;80.47;100049.97;5010118;28;20050;-72
2022/07/07 06:39:13;;;;;;;3.85;2.90;;;;;;;17.25;80.65;100052.63;4990744;28;20056;-72
2022/07/07 06:41:41;;;;;;;8.50;3.20;;;;;;;17.27;80.27;100048.03;4990688;28;20162;-72
2022/07/07 06:44:09;;;;;;;6.82;3.53;;;;;;;17.24;80.00;100048.28;5001462;28;20052;-70
2022/07/07 06:46:36;;;;;;;5.03;3.42;;;;;;;17.26;80.64;100046.34;5010133;28;20042;-72
2022/07/07 06:49:04;;;;;;;8.82;3.70;;;;;;;17.35;80.94;100043.03;5009843;28;20037;-70
2022/07/07 06:51:31;;;;;;;6.10;4.05;;;;;;;17.36;79.89;100047.38;5009865;28;20129;-72
2022/07/07 06:53:58;;;;;;;5.95;4.25;;;;;;;17.38;80.58;100048.13;5009526;28;20052;-71
2022/07/07 06:56:25;;;;;;;5.13;3.70;;;;;;;17.35;80.23;100047.47;5010459;28;20077;-71
2022/07/07 06:58:51;;;;;;;9.90;4.75;;;;;;;17.30;80.67;100050.50;5009431;28;20561;-70
2022/07/07 07:01:18;;;;;;;7.22;3.72;;;;;;;17.22;81.28;100054.66;5008640;28;20146;-71
2022/07/07 07:03:44;;;;;;;5.32;3.15;;;;;;;17.19;81.06;100052.25;5009546;28;20053;-71
2022/07/07 07:06:14;;;;;;;4.90;3.38;;;;;;;17.23;81.08;100057.25;5009405;28;20042;-71
2022/07/07 07:08:40;;;;;;;7.50;3.22;;;;;;;17.22;80.74;100074.16;5009654;28;20104;-71
2022/07/07 07:11:07;;;;;;;13.07;3.15;;;;;;;17.21;83.01;100085.81;5009646;28;20125;-60
2022/07/07 07:13:33;;;;;;;4.03;2.88;;;;;;;17.34;82.07;100078.59;5009115;28;20042;-58
2022/07/07 07:16:00;;;;;;;8.95;2.63;;;;;;;17.41;80.56;100092.34;5009241;28;20050;-54
2022/07/07 07:18:27;;;;;;;6.80;2.28;;;;;;;17.49;79.02;100097.13;5008792;28;20075;-53
2022/07/07 07:20:54;;;;;;;3.47;2.00;;;;;;;17.67;78.07;100095.78;5009417;28;20583;-53
2022/07/07 07:23:22;;;;;;;8.40;2.30;;;;;;;17.83;77.65;100100.00;5009190;28;20108;-55
2022/07/07 07:25:48;;;;;;;6.07;2.45;;;;;;;17.98;76.00;100097.03;5009082;28;20050;-55
2022/07/07 07:28:15;;;;;;;6.40;2.88;;;;;;;18.08;75.02;100094.50;5008581;28;20050;-58
2022/07/07 07:30:41;;;;;;;4.80;2.50;;;;;;;18.21;74.77;100095.31;5009059;28;20042;-58
2022/07/07 07:33:08;;;;;;;4.05;2.00;;;;;;;18.20;75.04;100104.25;5009486;28;20052;-59
2022/07/07 07:35:35;;;;;;;3.10;1.73;;;;;;;18.18;75.75;100116.88;5009390;28;20042;-65
2022/07/07 07:38:01;;;;;;;3.85;1.77;;;;;;;18.11;75.18;100120.97;5008844;28;20057;-65
2022/07/07 07:40:29;;;;;;;3.47;1.85;;;;;;;18.00;74.74;100115.59;5004149;28;20053;-66
2022/07/07 07:42:56;;;;;;;3.20;2.15;;;;;;;18.24;73.75;100124.41;5008431;28;20444;-57
2022/07/07 07:45:23;;;;;;;3.28;2.00;;;;;;;18.56;72.69;100126.44;5007690;28;20054;-51
2022/07/07 07:47:50;;;;;;;3.08;1.98;;;;;;;18.76;71.20;100126.75;5008255;28;20045;-56
2022/07/07 07:50:19;;;;;;;2.83;2.15;;;;;;;18.87;70.25;100126.75;5008985;28;20415;-56
2022/07/07 07:52:46;;;;;;;2.53;1.60;;;;;;;19.12;70.01;100125.66;5008744;28;20038;-58
2022/07/07 07:55:15;;;;;;;4.25;1.92;;;;;;;19.04;69.76;100136.97;5007972;28;20136;-71
2022/07/07 07:57:44;;;;;;;3.40;1.90;;;;;;;18.83;69.73;100144.00;5007595;28;20073;-74
2022/07/07 08:00:12;;;;;;;3.40;1.73;;;;;;;18.58;68.75;100140.53;5008562;28;20457;-71
2022/07/07 08:02:39;;;;;;;7.57;2.63;;;;;;;18.29;70.55;100145.44;5007963;28;20080;-71
2022/07/07 08:05:06;;;;;;;2.78;1.90;;;;;;;18.02;69.13;100143.88;5007469;28;20158;-71
2022/07/07 08:07:33;;;;;;;6.25;2.80;;;;;;;17.89;71.12;100148.38;5007684;28;20054;-71
2022/07/07 08:10:00;;;;;;;10.00;1.92;;;;;;;17.79;70.79;100144.66;5008581;28;20057;-70
2022/07/07 08:12:26;;;;;;;2.70;1.55;;;;;;;17.71;71.13;100152.38;5007202;28;20054;-70
2022/07/07 08:14:54;;;;;;;9.25;2.63;;;;;;;17.67;71.69;100157.09;5007900;28;20056;-71
2022/07/07 08:17:21;;;;;;;4.15;1.83;;;;;;;17.62;71.18;100156.56;5007602;28;20508;-71
2022/07/07 08:19:48;;;;;;;5.25;1.98;;;;;;;17.72;70.14;100165.63;5008023;28;20045;-70
2022/07/07 08:22:15;;;;;;;3.30;2.00;;;;;;;17.85;68.72;100176.28;5007975;28;20060;-70
2022/07/07 08:24:41;;;;;;;3.70;1.85;;;;;;;18.01;69.17;100171.50;5008812;28;20054;-70
2022/07/07 08:27:08;;;;;;;2.45;1.45;;;;;;;18.01;67.61;100166.16;5007923;28;20121;-71
2022/07/07 08:29:37;;;;;;;4.78;1.83;;;;;;;18.05;68.67;100168.63;5007237;28;20052;-70
2022/07/07 08:32:06;;;;;;;2.17;1.48;;;;;;;18.10;67.99;100163.78;5005132;28;20052;-70
2022/07/07 08:34:33;;;;;;;1.85;1.42;;;;;;;18.31;67.00;100158.63;5006991;28;20046;-72
2022/07/07 08:37:00;;;;;;;3.42;1.73;;;;;;;18.61;66.91;100166.16;5006969;28;20553;-70
2022/07/07 08:39:26;;;;;;;3.55;2.40;;;;;;;18.78;64.80;100162.19;5006939;28;20054;-71
2022/07/07 08:41:53;;;;;;;5.03;2.03;;;;;;;18.78;63.83;100172.88;5007762;28;20119;-69
2022/07/07 08:44:21;;;;;;;4.18;1.55;;;;;;;18.78;64.91;100168.41;5005867;28;20121;-71
2022/07/07 08:46:47;;;;;;;6.57;2.67;;;;;;;18.77;64.39;100165.84;5007860;28;20053;-71
2022/07/07 08:49:15;;;;;;;7.47;2.38;;;;;;;18.71;63.71;100174.31;5006719;28;20080;-71
2022/07/07 08:51:43;;;;;;;3.95;1.80;;;;;;;18.65;64.14;100181.78;5007538;28;20473;-71
2022/07/07 08:54:10;;;;;;;4.35;2.00;;;;;;;18.52;64.13;100188.22;5007426;28;20065;-71
2022/07/07 08:56:48;;;;;;;5.88;1.90;;;;;;;18.33;64.08;100191.41;5007519;28;20049;-71
2022/07/07 08:59:15;;;;;;;5.78;2.10;;;;;;;18.20;64.61;100199.50;5003012;28;20046;-70
2022/07/07 09:01:53;;;;;;;4.28;2.35;;;;;;;18.28;66.02;100198.91;5005141;28;20576;-63
2022/07/07 09:04:20;;;;;;;7.63;2.33;;;;;;;18.78;63.52;100199.59;4989314;28;20050;-63
2022/07/07 09:06:53;;;;;;;5.70;2.03;;;;;;;19.40;61.64;100185.81;4987776;28;20056;-62
2022/07/07 09:09:28;;;;;;;4.55;2.20;;;;;;;19.89;60.05;100189.91;5003873;28;20465;-63
2022/07/07 09:12:13;;;;;;;5.25;2.20;;;;;;;20.45;58.62;100193.34;4992143;28;20140;-63
2022/07/07 09:14:41;;;;;;;3.88;1.77;;;;;;;20.69;57.70;100195.81;5006747;28;20504;-65
2022/07/07 09:17:19;;;;;;;5.00;1.85;;;;;;;20.43;57.88;100201.53;4990647;28;20042;-65
2022/07/07 09:19:59;;;;;;;6.75;1.98;;;;;;;20.27;57.75;100211.81;5007001;28;20046;-69
2022/07/07 09:22:43;;;;;;;5.65;2.17;;;;;;;19.88;58.38;100206.09;5006566;28;20042;-70
2022/07/07 09:25:33;;;;;;;4.57;2.15;;;;;;;19.78;57.89;100214.00;4991334;28;20045;-69
2022/07/07 09:28:07;;;;;;;6.35;1.77;;;;;;;19.84;57.55;100228.72;4994735;28;20494;-69
2022/07/07 09:30:36;;;;;;;6.38;2.65;;;;;;;20.01;56.37;100219.31;5006655;28;20052;-70
2022/07/07 09:33:05;;;;;;;5.13;1.70;;;;;;;20.70;54.82;100213.59;5005626;28;20078;-69
2022/07/07 09:38:24;;;;;;;4.05;1.88;;;;;;;20.40;54.71;100215.16;4995108;28;20188;-71
2022/07/07 09:40:58;;;;;;;5.00;1.70;;;;;;;20.20;55.22;100234.72;4995750;28;20089;-70
2022/07/07 09:43:24;;;;;;;4.13;1.95;;;;;;;19.93;56.89;100236.84;5006041;28;20058;-69
2022/07/07 09:46:17;;;;;;;17.08;3.20;;;;;;;19.54;59.75;100251.56;5006462;28;20745;-69
2022/07/07 09:48:49;;;;;;;9.48;2.92;;;;;;;19.14;61.99;100259.19;5005757;28;20042;-71
2022/07/07 09:51:27;;;;;;;8.82;2.40;;;;;;;18.90;63.47;100261.91;5007037;28;20042;-70
2022/07/07 09:54:05;;;;;;;4.32;2.20;;;;;;;18.76;63.52;100263.00;5006555;28;20073;-69
2022/07/07 09:56:34;;;;;;;5.80;2.40;;;;;;;18.80;63.31;100273.31;5007016;28;20054;-71
2022/07/07 09:59:06;;;;;;;6.93;2.35;;;;;;;18.87;63.31;100269.19;5005819;28;20048;-70
2022/07/07 10:01:35;;;;;;;6.30;2.55;;;;;;;19.03;62.57;100270.72;5005025;28;20462;-69
2022/07/07 10:04:03;;;;;;;5.00;1.83;;;;;;;19.24;62.57;100260.16;5005719;28;20062;-68
2022/07/07 10:06:38;;;;;;;10.15;2.65;;;;;;;19.31;60.76;100272.94;4996666;28;20074;-69
2022/07/07 10:12:01;;;;;;;6.28;2.55;;;;;;;19.31;59.32;100277.44;4980778;28;20317;-71
2022/07/07 10:14:33;;;;;;;9.18;3.00;;;;;;;19.52;58.62;100275.75;4998792;28;20057;-71
2022/07/07 10:17:01;;;;;;;4.43;2.58;;;;;;;19.86;56.78;100283.81;5006476;28;20417;-71
2022/07/07 10:19:28;;;;;;;4.38;1.90;;;;;;;19.94;55.08;100284.06;5013944;28;20141;-73
2022/07/07 10:21:57;;;;;;;3.28;1.75;;;;;;;20.06;55.88;100282.22;5007084;28;20046;-70
2022/07/07 10:24:28;;;;;;;7.82;2.08;;;;;;;20.34;56.02;100280.78;5008097;28;20048;-71
2022/07/07 10:26:56;;;;;;;4.28;1.42;;;;;;;20.44;53.43;100282.72;5009095;28;20048;-72
2022/07/07 10:29:40;;;;;;;2.17;1.38;;;;;;;20.41;53.58;100281.16;5009515;28;20045;-71
2022/07/07 10:32:08;;;;;;;3.15;1.83;;;;;;;20.19;54.69;100290.09;5009816;28;20135;-71
2022/07/07 10:34:37;;;;;;;4.30;1.85;;;;;;;20.05;55.90;100298.38;5010896;28;20046;-74
2022/07/07 10:37:07;;;;;;;4.78;2.20;;;;;;;19.89;56.33;100304.97;5009244;28;20524;-71
2022/07/07 10:39:53;;;;;;;5.38;2.50;;;;;;;19.74;57.34;100306.22;4998651;28;20053;-70
2022/07/07 10:42:48;;;;;;;5.25;2.20;;;;;;;19.54;58.01;100302.38;5009669;28;20065;-73
2022/07/07 10:45:15;;;;;;;5.70;2.13;;;;;;;19.22;59.63;100320.91;5009796;28;20058;-73
2022/07/07 10:47:42;;;;;;;5.55;2.22;;;;;;;19.00;61.16;100319.03;5008133;28;20057;-72
2022/07/07 10:50:30;;;;;;;26.95;2.55;;;;;;;18.85;61.90;100329.94;5009866;28;20045;-72
2022/07/07 10:53:23;;;;;;;6.53;1.80;;;;;;;18.82;61.52;100338.16;4997650;28;20125;-73
2022/07/07 10:55:58;;;;;;;2.97;1.70;;;;;;;18.71;62.28;100326.56;4975540;28;20125;-73
2022/07/07 10:58:53;;;;;;;6.75;2.40;;;;;;;18.68;63.13;100332.97;4998458;28;20554;-73
2022/07/07 11:01:23;;;;;;;5.80;2.63;;;;;;;18.81;63.10;100341.81;5010439;28;20072;-75
2022/07/07 11:03:50;;;;;;;12.43;5.63;;;;;;;18.92;63.02;100345.47;5010027;28;20050;-70
2022/07/07 11:14:43;;;;;;;5.60;1.92;;;;;;;19.48;58.98;100338.47;5842401;23;19921;-70
2022/07/07 11:17:21;;;;;;;5.13;2.33;;;;;;;19.41;59.78;100339.91;4871996;29;20562;-70
2022/07/07 11:19:51;;;;;;;5.25;2.13;;;;;;;19.22;62.25;100351.19;4880926;29;21466;-69
2022/07/07 11:22:18;;;;;;;4.55;1.92;;;;;;;19.05;64.42;100354.28;4875169;29;20152;-68
2022/07/07 11:24:44;;;;;;;4.00;1.80;;;;;;;18.80;64.78;100360.59;4875222;29;20505;-68
2022/07/07 11:27:11;;;;;;;3.35;1.90;;;;;;;18.67;64.97;100361.47;4893366;29;20814;-71
2022/07/07 11:29:38;;;;;;;7.03;2.30;;;;;;;18.64;66.43;100369.72;4880949;29;20060;-49
2022/07/07 11:32:08;;;;;;;7.43;3.45;;;;;;;18.73;64.76;100368.22;4874070;29;20048;-47
2022/07/07 11:34:48;;;;;;;4.60;1.98;;;;;;;18.84;63.95;100362.94;4873569;29;20072;-50
2022/07/07 11:37:24;;;;;;;7.68;2.38;;;;;;;19.01;62.84;100366.19;4873961;29;20073;-47
2022/07/07 11:39:51;;;;;;;4.70;2.28;;;;;;;19.20;61.92;100368.31;4874597;29;20056;-50
2022/07/07 11:42:17;;;;;;;3.25;1.60;;;;;;;19.42;60.58;100370.19;4875401;29;20563;-52
2022/07/07 11:44:44;;;;;;;8.38;2.30;;;;;;;19.48;60.00;100359.88;4874214;29;20045;-46
2022/07/07 11:47:13;;;;;;;5.70;1.67;;;;;;;19.61;59.63;100366.94;4881745;29;20059;-47